Time;durP1;ratioP1;P1;durP2;ratioP2;P2;SDS_P1;SDS_P2;PMS_P1;PMS_P2;Temp;Humidity;BMP_temperature;BMP_pressure;BME280_temperature;BME280_humidity;BME280_pressure;Samples;Min_cycle;Max_cycle;Signal;HPM_P1;HPM_P2
2022/01/22 00:00:12;;;;;;;7.97;1.27;;;;;;;;;;5051133;28;20049;-61
2022/01/22 00:02:38;;;;;;;2.40;1.10;;;;;;;;;;5043413;28;20061;-61
2022/01/22 00:05:07;;;;;;;5.75;1.10;;;;;;;;;;5039509;28;20135;-60
2022/01/22 00:07:33;;;;;;;7.40;1.30;;;;;;;;;;5042144;28;20079;-59
2022/01/22 00:10:04;;;;;;;6.88;1.30;;;;;;;;;;5048002;28;20111;-60
2022/01/22 00:12:54;;;;;;;9.40;1.05;;;;;;;;;;5040028;28;20056;-59
2022/01/22 00:15:23;;;;;;;9.55;1.20;;;;;;;;;;5048266;28;20140;-60
2022/01/22 00:17:51;;;;;;;10.27;1.10;;;;;;;;;;5041712;28;20081;-61
2022/01/22 00:20:18;;;;;;;6.93;1.25;;;;;;;;;;5048290;28;20049;-58
2022/01/22 00:22:45;;;;;;;6.53;1.20;;;;;;;;;;5043067;28;20048;-60
2022/01/22 00:25:13;;;;;;;15.32;1.67;;;;;;;;;;5048314;28;20059;-59
2022/01/22 00:27:42;;;;;;;11.80;2.70;;;;;;;;;;5042538;28;20099;-59
2022/01/22 00:30:10;;;;;;;5.28;1.63;;;;;;;;;;5048445;28;20122;-57
2022/01/22 00:32:36;;;;;;;9.47;1.70;;;;;;;;;;5039068;28;20136;-59
2022/01/22 00:35:04;;;;;;;5.10;1.20;;;;;;;;;;5028418;28;20173;-60
2022/01/22 00:37:31;;;;;;;5.28;1.00;;;;;;;;;;5023125;28;20050;-60
2022/01/22 00:39:57;;;;;;;4.70;1.08;;;;;;;;;;5047878;28;20072;-62
2022/01/22 00:42:24;;;;;;;5.78;1.30;;;;;;;;;;5047155;28;20045;-59
2022/01/22 00:44:53;;;;;;;5.03;1.15;;;;;;;;;;5041542;28;20049;-60
2022/01/22 00:47:20;;;;;;;9.80;1.30;;;;;;;;;;5048117;28;20061;-57
2022/01/22 00:49:46;;;;;;;7.45;1.17;;;;;;;;;;5041527;28;20048;-60
2022/01/22 00:52:13;;;;;;;8.25;1.40;;;;;;;;;;5047845;28;20106;-58
2022/01/22 00:54:40;;;;;;;4.22;1.08;;;;;;;;;;5041610;28;20053;-56
2022/01/22 00:57:06;;;;;;;5.70;1.30;;;;;;;;;;5047774;28;20045;-56
2022/01/22 00:59:33;;;;;;;5.85;1.40;;;;;;;;;;5031350;28;20115;-57
2022/01/22 01:02:02;;;;;;;6.68;1.23;;;;;;;;;;5027441;28;20049;-60
2022/01/22 01:04:33;;;;;;;7.00;1.38;;;;;;;;;;5030797;28;20091;-59
2022/01/22 01:07:00;;;;;;;6.45;1.10;;;;;;;;;;5046338;28;20065;-56
2022/01/22 01:09:26;;;;;;;4.15;1.00;;;;;;;;;;5041854;28;20040;-55
2022/01/22 01:11:58;;;;;;;12.05;1.60;;;;;;;;;;5047168;28;20060;-61
2022/01/22 01:14:30;;;;;;;6.45;1.35;;;;;;;;;;5027540;28;20048;-59
2022/01/22 01:17:10;;;;;;;4.35;1.08;;;;;;;;;;5047301;28;20045;-61
2022/01/22 01:33:25;;;;;;;4.80;1.20;;;;;;;;;;5006610;28;20123;-56
2022/01/22 01:35:56;;;;;;;15.38;2.22;;;;;;;;;;5041322;28;20049;-60
2022/01/22 01:38:23;;;;;;;11.55;1.85;;;;;;;;;;5044714;28;20045;-56
2022/01/22 01:40:58;;;;;;;5.88;1.60;;;;;;;;;;5039118;28;20144;-54
2022/01/22 01:43:30;;;;;;;7.65;1.63;;;;;;;;;;5046619;28;20122;-58
2022/01/22 01:45:56;;;;;;;4.90;1.38;;;;;;;;;;5040789;28;20059;-60
2022/01/22 01:48:28;;;;;;;16.10;2.13;;;;;;;;;;5046519;28;20049;-59
2022/01/22 01:50:58;;;;;;;5.10;1.73;;;;;;;;;;5040371;28;20055;-58
2022/01/22 01:53:41;;;;;;;7.18;2.33;;;;;;;;;;5045827;28;20057;-57
2022/01/22 01:57:26;;;;;;;5.63;1.95;;;;;;;;;;5040826;28;20056;-58
2022/01/22 01:58:55;;;;;;;10.55;2.00;;;;;;;;;;5045404;28;20057;-59
2022/01/22 02:01:22;;;;;;;8.18;2.13;;;;;;;;;;5040887;28;20040;-57
2022/01/22 02:03:49;;;;;;;11.50;2.33;;;;;;;;;;5046227;28;20044;-60
2022/01/22 02:06:19;;;;;;;11.27;1.83;;;;;;;;;;5040280;28;20094;-52
2022/01/22 02:08:45;;;;;;;9.18;1.65;;;;;;;;;;5046498;28;20072;-56
2022/01/22 02:11:14;;;;;;;10.50;1.95;;;;;;;;;;5040511;28;20425;-57
2022/01/22 02:13:47;;;;;;;8.80;2.10;;;;;;;;;;5045476;28;20068;-59
2022/01/22 02:24:36;;;;;;;6.50;2.15;;;;;;;;;;5045586;28;20063;-54
2022/01/22 02:27:04;;;;;;;6.47;2.10;;;;;;;;;;5039761;28;20047;-54
2022/01/22 02:29:30;;;;;;;7.68;2.03;;;;;;;;;;5043547;28;20053;-56
2022/01/22 02:32:12;;;;;;;5.72;1.77;;;;;;;;;;5040345;28;20143;-56
2022/01/22 02:34:49;;;;;;;9.18;2.53;;;;;;;;;;5046208;28;20078;-56
2022/01/22 02:37:21;;;;;;;7.15;2.60;;;;;;;;;;5033471;28;20063;-53
2022/01/22 02:39:59;;;;;;;8.27;1.92;;;;;;;;;;5042620;28;20077;-55
2022/01/22 02:42:29;;;;;;;7.22;2.33;;;;;;;;;;5019734;28;20056;-61
2022/01/22 02:44:56;;;;;;;8.00;2.58;;;;;;;;;;5042632;28;20060;-57
2022/01/22 02:47:23;;;;;;;5.57;1.80;;;;;;;;;;5023280;28;20178;-55
2022/01/22 02:49:50;;;;;;;7.40;2.00;;;;;;;;;;5020619;28;20311;-56
2022/01/22 02:52:22;;;;;;;8.73;2.22;;;;;;;;;;5042855;28;20061;-55
2022/01/22 02:54:50;;;;;;;9.32;2.22;;;;;;;;;;5020747;28;20115;-57
2022/01/22 02:57:16;;;;;;;4.50;2.10;;;;;;;;;;5044531;28;20059;-57
2022/01/22 02:59:43;;;;;;;9.75;2.38;;;;;;;;;;5020801;28;20108;-55
2022/01/22 03:02:12;;;;;;;4.03;1.80;;;;;;;;;;5055317;28;20052;-59
2022/01/22 03:04:39;;;;;;;8.50;2.05;;;;;;;;;;5043072;28;20053;-55
2022/01/22 03:07:05;;;;;;;7.88;2.50;;;;;;;;;;5049101;28;20111;-56
2022/01/22 03:09:40;;;;;;;7.30;2.33;;;;;;;;;;5043918;28;20056;-55
2022/01/22 03:12:20;;;;;;;10.00;3.20;;;;;;;;;;5041666;28;20053;-57
2022/01/22 03:15:29;;;;;;;9.35;2.35;;;;;;;;;;5034986;28;20049;-58
2022/01/22 03:17:56;;;;;;;11.38;2.15;;;;;;;;;;5047907;28;20062;-56
2022/01/22 03:20:39;;;;;;;7.70;2.38;;;;;;;;;;5043217;28;20060;-55
2022/01/22 03:27:11;;;;;;;6.93;2.13;;;;;;;;;;5049123;28;20114;-53
2022/01/22 03:28:51;;;;;;;8.15;2.33;;;;;;;;;;5048157;28;20049;-57
2022/01/22 03:31:17;;;;;;;9.40;2.67;;;;;;;;;;5042645;28;20059;-56
2022/01/22 03:33:44;;;;;;;7.15;2.10;;;;;;;;;;5048628;28;20057;-59
2022/01/22 03:36:11;;;;;;;8.93;2.53;;;;;;;;;;5042895;28;20088;-61
2022/01/22 03:38:38;;;;;;;8.63;1.90;;;;;;;;;;5048324;28;20049;-57
2022/01/22 03:41:05;;;;;;;6.90;1.95;;;;;;;;;;5042878;28;20056;-61
2022/01/22 03:43:32;;;;;;;9.30;2.10;;;;;;;;;;5048067;28;20072;-61
2022/01/22 03:45:58;;;;;;;9.93;2.30;;;;;;;;;;5043173;28;20053;-59
2022/01/22 03:48:25;;;;;;;8.75;2.30;;;;;;;;;;5049025;28;20059;-60
2022/01/22 03:50:53;;;;;;;7.70;2.05;;;;;;;;;;5043262;28;20120;-60
2022/01/22 03:53:20;;;;;;;10.57;2.20;;;;;;;;;;5049297;28;20064;-59
2022/01/22 03:55:56;;;;;;;9.07;2.25;;;;;;;;;;5044264;28;20080;-56
2022/01/22 03:58:24;;;;;;;9.70;2.08;;;;;;;;;;5048899;28;20057;-56
2022/01/22 04:01:02;;;;;;;6.90;2.10;;;;;;;;;;5038759;28;20057;-55
2022/01/22 04:03:31;;;;;;;10.98;1.90;;;;;;;;;;5006849;28;20301;-60
2022/01/22 04:08:41;;;;;;;5.88;1.65;;;;;;;;;;5027604;28;20191;-56
2022/01/22 04:11:11;;;;;;;8.45;2.17;;;;;;;;;;5022965;28;20119;-56
2022/01/22 04:13:39;;;;;;;11.40;2.38;;;;;;;;;;5027114;28;20254;-57
2022/01/22 04:16:07;;;;;;;5.65;1.90;;;;;;;;;;5022524;28;20077;-57
2022/01/22 04:26:55;;;;;;;6.47;1.77;;;;;;;;;;5025346;28;20060;-61
2022/01/22 04:29:24;;;;;;;5.60;1.55;;;;;;;;;;5030055;28;20107;-62
2022/01/22 04:31:50;;;;;;;7.00;1.70;;;;;;;;;;5038939;28;20064;-55
2022/01/22 04:34:17;;;;;;;3.80;1.73;;;;;;;;;;5028071;28;20160;-57
2022/01/22 04:36:44;;;;;;;9.50;1.63;;;;;;;;;;5026106;28;20050;-54
2022/01/22 04:39:10;;;;;;;6.55;1.58;;;;;;;;;;5025410;28;20069;-54
2022/01/22 04:41:37;;;;;;;4.28;1.30;;;;;;;;;;5043990;28;20081;-57
2022/01/22 04:44:06;;;;;;;12.48;1.88;;;;;;;;;;5022169;28;20081;-56
2022/01/22 04:46:51;;;;;;;5.35;1.63;;;;;;;;;;5044565;28;20057;-56
2022/01/22 04:55:00;;;;;;;4.43;1.58;;;;;;;;;;5060184;28;20092;-54
2022/01/22 04:57:26;;;;;;;5.88;1.60;;;;;;;;;;5064010;28;20076;-60
2022/01/22 04:59:53;;;;;;;11.57;2.08;;;;;;;;;;5022030;28;20134;-59
2022/01/22 05:02:21;;;;;;;6.40;2.10;;;;;;;;;;5047048;28;20126;-57
2022/01/22 05:04:48;;;;;;;4.70;1.67;;;;;;;;;;5037550;28;20068;-59
2022/01/22 05:07:15;;;;;;;14.55;2.08;;;;;;;;;;5044956;28;20049;-56
2022/01/22 05:09:41;;;;;;;6.97;1.70;;;;;;;;;;5038840;28;20057;-57
2022/01/22 05:12:09;;;;;;;12.30;2.17;;;;;;;;;;5043883;28;20064;-59
2022/01/22 05:14:36;;;;;;;10.57;2.03;;;;;;;;;;5053233;28;20053;-60
2022/01/22 05:17:05;;;;;;;6.15;1.90;;;;;;;;;;5044903;28;20405;-56
2022/01/22 05:19:44;;;;;;;8.75;2.00;;;;;;;;;;5038469;28;20049;-60
2022/01/22 05:22:18;;;;;;;7.70;2.28;;;;;;;;;;5045764;28;20102;-57
2022/01/22 05:24:50;;;;;;;8.95;2.30;;;;;;;;;;5054108;28;20103;-60
2022/01/22 05:33:29;;;;;;;11.48;2.42;;;;;;;;;;5051093;28;20044;-56
2022/01/22 05:38:38;;;;;;;11.20;2.05;;;;;;;;;;5015156;28;20048;-52
2022/01/22 05:41:05;;;;;;;9.98;1.75;;;;;;;;;;5051268;28;20048;-53
2022/01/22 05:43:31;;;;;;;6.93;2.03;;;;;;;;;;5061950;28;20106;-53
2022/01/22 05:46:01;;;;;;;8.48;2.13;;;;;;;;;;5059830;28;20205;-59
2022/01/22 05:48:27;;;;;;;6.50;1.98;;;;;;;;;;5077018;28;20048;-60
2022/01/22 05:50:57;;;;;;;7.07;1.90;;;;;;;;;;5067779;28;20121;-54
2022/01/22 05:53:42;;;;;;;7.57;2.10;;;;;;;;;;5071032;28;20135;-50
2022/01/22 06:01:39;;;;;;;10.57;2.20;;;;;;;;;;5064493;28;20090;-54
2022/01/22 06:04:05;;;;;;;11.25;2.38;;;;;;;;;;5071362;28;20044;-54
2022/01/22 06:06:32;;;;;;;10.98;2.40;;;;;;;;;;5063511;28;20055;-55
2022/01/22 06:09:01;;;;;;;5.40;1.95;;;;;;;;;;5088823;28;20067;-57
2022/01/22 06:11:29;;;;;;;9.63;2.05;;;;;;;;;;5061684;28;20048;-52
2022/01/22 06:13:56;;;;;;;4.13;1.67;;;;;;;;;;5053009;28;20056;-50
2022/01/22 06:16:23;;;;;;;4.70;1.80;;;;;;;;;;5042818;28;20306;-51
2022/01/22 06:18:51;;;;;;;7.65;2.00;;;;;;;;;;5050201;28;20597;-54
2022/01/22 06:21:18;;;;;;;4.75;1.83;;;;;;;;;;5042845;28;20037;-55
2022/01/22 06:23:46;;;;;;;5.80;1.92;;;;;;;;;;5049824;28;20053;-55
2022/01/22 06:26:12;;;;;;;9.43;2.00;;;;;;;;;;5044194;28;20051;-52
2022/01/22 06:28:39;;;;;;;5.80;1.75;;;;;;;;;;5051592;28;20056;-51
2022/01/22 06:31:06;;;;;;;4.50;1.63;;;;;;;;;;5054504;28;20097;-53
2022/01/22 06:33:32;;;;;;;6.53;1.92;;;;;;;;;;5047341;28;20102;-56
2022/01/22 06:36:00;;;;;;;8.07;1.83;;;;;;;;;;5054216;28;20126;-58
2022/01/22 06:38:27;;;;;;;7.53;1.47;;;;;;;;;;5052059;28;20070;-52
2022/01/22 06:43:37;;;;;;;7.00;1.75;;;;;;;;;;5033486;28;20075;-55
2022/01/22 06:46:04;;;;;;;9.60;2.00;;;;;;;;;;5036622;28;20063;-50
2022/01/22 06:48:31;;;;;;;8.30;2.13;;;;;;;;;;5031565;28;20057;-53
2022/01/22 06:50:58;;;;;;;9.52;1.85;;;;;;;;;;5040164;28;20053;-54
2022/01/22 06:53:27;;;;;;;4.70;1.80;;;;;;;;;;5033111;28;20060;-51
2022/01/22 06:55:59;;;;;;;10.05;2.20;;;;;;;;;;5036308;28;20057;-52
2022/01/22 06:58:26;;;;;;;9.40;2.10;;;;;;;;;;5030766;28;20132;-51
2022/01/22 07:00:53;;;;;;;5.38;1.80;;;;;;;;;;5040508;28;20053;-52
2022/01/22 07:03:19;;;;;;;4.93;1.75;;;;;;;;;;5030356;28;20057;-58
2022/01/22 07:05:47;;;;;;;12.07;1.88;;;;;;;;;;5033421;28;20044;-54
2022/01/22 07:08:14;;;;;;;7.10;1.60;;;;;;;;;;5029192;28;20118;-57
2022/01/22 07:10:41;;;;;;;3.58;1.50;;;;;;;;;;5037271;28;20147;-55
2022/01/22 07:13:08;;;;;;;6.93;1.40;;;;;;;;;;5030573;28;20056;-54
2022/01/22 07:15:35;;;;;;;3.53;1.45;;;;;;;;;;5038920;28;20299;-55
2022/01/22 07:18:03;;;;;;;2.88;1.30;;;;;;;;;;5032482;28;20076;-58
2022/01/22 07:20:33;;;;;;;6.80;1.83;;;;;;;;;;5035636;28;20143;-59
2022/01/22 07:23:03;;;;;;;11.57;1.60;;;;;;;;;;5038624;28;20072;-57
2022/01/22 07:25:30;;;;;;;5.53;1.45;;;;;;;;;;5028433;28;20048;-56
2022/01/22 07:27:58;;;;;;;9.15;1.85;;;;;;;;;;5036411;28;20056;-56
2022/01/22 07:30:28;;;;;;;10.00;1.58;;;;;;;;;;5031057;28;20048;-58
2022/01/22 07:32:55;;;;;;;6.32;1.55;;;;;;;;;;5040444;28;20053;-51
2022/01/22 07:35:23;;;;;;;10.07;1.65;;;;;;;;;;5028495;28;20140;-52
2022/01/22 07:37:49;;;;;;;9.98;1.52;;;;;;;;;;5039838;28;20304;-53
2022/01/22 07:40:15;;;;;;;5.38;1.48;;;;;;;;;;5025715;28;20167;-51
2022/01/22 07:42:42;;;;;;;4.82;1.52;;;;;;;;;;5036016;28;20049;-55
2022/01/22 07:45:16;;;;;;;8.43;1.40;;;;;;;;;;5027778;28;20053;-55
2022/01/22 07:47:43;;;;;;;7.70;1.30;;;;;;;;;;5035850;28;20053;-55
2022/01/22 07:50:09;;;;;;;3.17;1.15;;;;;;;;;;5025242;28;20072;-54
2022/01/22 07:52:36;;;;;;;5.80;1.10;;;;;;;;;;5037228;28;20079;-55
2022/01/22 07:55:05;;;;;;;6.57;1.50;;;;;;;;;;5032796;28;20060;-53
2022/01/22 07:57:31;;;;;;;17.00;4.93;;;;;;;;;;5032187;28;20048;-56
2022/01/22 07:59:58;;;;;;;7.63;2.05;;;;;;;;;;5028259;28;20059;-51
2022/01/22 08:02:26;;;;;;;6.80;1.33;;;;;;;;;;5034028;28;20056;-55
2022/01/22 08:04:52;;;;;;;13.98;1.33;;;;;;;;;;5030476;28;20048;-55
2022/01/22 08:07:19;;;;;;;3.97;1.52;;;;;;;;;;5033272;28;20079;-54
2022/01/22 08:09:46;;;;;;;3.78;1.45;;;;;;;;;;5041590;28;20068;-54
2022/01/22 08:12:12;;;;;;;2.88;1.13;;;;;;;;;;5033108;28;20054;-56
2022/01/22 08:14:42;;;;;;;5.03;1.20;;;;;;;;;;5030276;28;20083;-53
2022/01/22 08:17:09;;;;;;;3.25;1.38;;;;;;;;;;5031152;28;20057;-54
2022/01/22 08:19:37;;;;;;;8.10;1.40;;;;;;;;;;5046546;28;20084;-57
2022/01/22 08:22:03;;;;;;;6.60;1.30;;;;;;;;;;5042227;28;20052;-58
2022/01/22 08:24:30;;;;;;;9.23;1.35;;;;;;;;;;5066000;28;20044;-59
2022/01/22 08:27:11;;;;;;;5.93;1.25;;;;;;;;;;5059921;28;20048;-56
2022/01/22 08:29:37;;;;;;;8.55;1.27;;;;;;;;;;5054921;28;20055;-57
2022/01/22 08:32:10;;;;;;;6.88;1.20;;;;;;;;;;5035068;28;20519;-58
2022/01/22 08:37:22;;;;;;;7.28;1.20;;;;;;;;;;5053757;28;20459;-57
2022/01/22 08:39:49;;;;;;;3.58;1.05;;;;;;;;;;5026286;28;20061;-60
2022/01/22 08:42:16;;;;;;;3.25;1.00;;;;;;;;;;5020437;28;20061;-60
2022/01/22 08:44:42;;;;;;;0.88;0.73;;;;;;;;;;5026508;28;20058;-60
2022/01/22 08:47:09;;;;;;;12.68;1.20;;;;;;;;;;5021211;28;20107;-61
2022/01/22 08:49:37;;;;;;;4.43;0.93;;;;;;;;;;5028392;28;20057;-57
2022/01/22 08:52:12;;;;;;;4.95;1.40;;;;;;;;;;5022825;28;20049;-62
2022/01/22 08:54:41;;;;;;;11.80;3.20;;;;;;;;;;5026852;28;20172;-58
2022/01/22 08:57:08;;;;;;;9.45;1.63;;;;;;;;;;5020809;28;21002;-57
2022/01/22 08:59:34;;;;;;;8.73;1.33;;;;;;;;;;5025325;28;20152;-57
2022/01/22 09:02:01;;;;;;;13.73;1.42;;;;;;;;;;5022619;28;20431;-56
2022/01/22 09:04:28;;;;;;;3.88;1.15;;;;;;;;;;5022637;28;20053;-59
2022/01/22 09:06:54;;;;;;;5.72;1.30;;;;;;;;;;5025536;28;20053;-60
2022/01/22 09:09:23;;;;;;;8.05;1.25;;;;;;;;;;5020612;28;20052;-56
2022/01/22 09:11:50;;;;;;;6.32;1.13;;;;;;;;;;5024529;28;20054;-61
2022/01/22 09:14:18;;;;;;;3.60;1.17;;;;;;;;;;5013675;28;20132;-61
2022/01/22 09:16:45;;;;;;;3.75;1.27;;;;;;;;;;5047258;28;20116;-61
2022/01/22 09:19:12;;;;;;;6.63;1.40;;;;;;;;;;5033226;28;20057;-60
2022/01/22 09:21:40;;;;;;;3.65;1.25;;;;;;;;;;5027452;28;20136;-61
2022/01/22 09:24:09;;;;;;;9.85;1.40;;;;;;;;;;5024518;28;20099;-61
2022/01/22 09:26:37;;;;;;;7.13;1.15;;;;;;;;;;5017923;28;20057;-60
2022/01/22 09:29:04;;;;;;;4.80;1.10;;;;;;;;;;5017217;28;20056;-57
2022/01/22 09:31:32;;;;;;;13.23;1.48;;;;;;;;;;5026568;28;20060;-59
2022/01/22 09:34:02;;;;;;;8.05;1.33;;;;;;;;;;5016591;28;20062;-56
2022/01/22 09:36:29;;;;;;;3.28;1.20;;;;;;;;;;5022875;28;20139;-58
2022/01/22 09:38:57;;;;;;;4.68;2.10;;;;;;;;;;5018149;28;20140;-53
2022/01/22 09:41:24;;;;;;;4.93;1.00;;;;;;;;;;5023525;28;20128;-58
2022/01/22 09:43:53;;;;;;;6.35;1.60;;;;;;;;;;5018333;28;20112;-58
2022/01/22 09:46:20;;;;;;;6.35;1.30;;;;;;;;;;5024760;28;20143;-60
2022/01/22 09:48:47;;;;;;;4.95;1.25;;;;;;;;;;5025933;28;20111;-56
2022/01/22 09:51:14;;;;;;;8.98;2.00;;;;;;;;;;5019639;28;20054;-54
2022/01/22 09:53:42;;;;;;;9.35;1.42;;;;;;;;;;5024295;28;20049;-60
2022/01/22 09:56:08;;;;;;;3.67;1.23;;;;;;;;;;5038547;28;20087;-56
2022/01/22 09:58:35;;;;;;;4.10;1.30;;;;;;;;;;5034214;28;20057;-53
2022/01/22 10:01:23;;;;;;;7.78;1.38;;;;;;;;;;5016212;28;20145;-58
2022/01/22 10:03:50;;;;;;;10.82;1.42;;;;;;;;;;5022460;28;20096;-56
2022/01/22 10:06:17;;;;;;;4.95;1.40;;;;;;;;;;5018397;28;20149;-55
2022/01/22 10:08:44;;;;;;;6.35;1.58;;;;;;;;;;5022918;28;20053;-58
2022/01/22 10:11:22;;;;;;;5.60;1.55;;;;;;;;;;5018630;28;20057;-57
2022/01/22 10:13:51;;;;;;;9.90;1.77;;;;;;;;;;5022996;28;20057;-59
2022/01/22 10:16:23;;;;;;;4.78;1.60;;;;;;;;;;5020115;28;20049;-59
2022/01/22 10:19:09;;;;;;;4.97;1.52;;;;;;;;;;5028838;28;20087;-60
2022/01/22 10:21:35;;;;;;;5.70;1.50;;;;;;;;;;5023811;28;20057;-61
2022/01/22 10:24:17;;;;;;;4.85;1.30;;;;;;;;;;5028582;28;20107;-59
2022/01/22 10:26:44;;;;;;;3.47;1.33;;;;;;;;;;5020797;28;20049;-59
2022/01/22 10:29:10;;;;;;;9.13;1.50;;;;;;;;;;5042443;28;20403;-56
2022/01/22 10:31:43;;;;;;;9.93;2.33;;;;;;;;;;5048543;28;20061;-58
2022/01/22 10:34:11;;;;;;;19.25;3.67;;;;;;;;;;5054031;28;20150;-58
2022/01/22 10:36:39;;;;;;;9.50;3.60;;;;;;;;;;5035447;28;20076;-57
2022/01/22 10:39:07;;;;;;;11.95;2.08;;;;;;;;;;5029002;28;20100;-57
2022/01/22 10:41:35;;;;;;;4.80;1.77;;;;;;;;;;5028806;28;20080;-58
2022/01/22 10:44:02;;;;;;;6.40;1.60;;;;;;;;;;5041037;28;20052;-55
2022/01/22 10:46:43;;;;;;;5.45;1.65;;;;;;;;;;5024474;28;20083;-56
2022/01/22 10:49:12;;;;;;;7.68;2.70;;;;;;;;;;5045150;28;20064;-56
2022/01/22 10:51:46;;;;;;;9.30;3.38;;;;;;;;;;5038228;28;20118;-58
2022/01/22 10:54:13;;;;;;;10.15;3.30;;;;;;;;;;5048297;28;20076;-57
2022/01/22 10:56:41;;;;;;;6.68;2.00;;;;;;;;;;5034127;28;20049;-58
2022/01/22 10:59:08;;;;;;;10.45;3.65;;;;;;;;;;5034198;28;20143;-53
2022/01/22 11:01:45;;;;;;;8.95;3.25;;;;;;;;;;5027728;28;20053;-55
2022/01/22 11:04:14;;;;;;;12.30;3.60;;;;;;;;;;5046570;28;20080;-56
2022/01/22 11:06:41;;;;;;;12.35;3.38;;;;;;;;;;5049314;28;20135;-58
2022/01/22 11:09:08;;;;;;;8.23;3.13;;;;;;;;;;5023799;28;20132;-59
2022/01/22 11:11:37;;;;;;;11.68;3.40;;;;;;;;;;5027902;28;20045;-57
2022/01/22 11:14:05;;;;;;;9.93;2.97;;;;;;;;;;5039000;28;20056;-56
2022/01/22 11:16:32;;;;;;;7.43;2.35;;;;;;;;;;5048493;28;20049;-59
2022/01/22 11:19:02;;;;;;;7.55;2.30;;;;;;;;;;5042318;28;20053;-57
2022/01/22 11:21:31;;;;;;;7.32;2.45;;;;;;;;;;5047961;28;20110;-55
2022/01/22 11:23:58;;;;;;;10.88;2.47;;;;;;;;;;5028817;28;20061;-54
2022/01/22 11:26:25;;;;;;;11.35;3.03;;;;;;;;;;5033705;28;20106;-55
2022/01/22 11:28:52;;;;;;;6.28;2.65;;;;;;;;;;5042252;28;20061;-55
2022/01/22 11:31:21;;;;;;;10.23;3.05;;;;;;;;;;5047923;28;20130;-57
2022/01/22 11:33:48;;;;;;;18.10;3.05;;;;;;;;;;5041847;28;20106;-55
2022/01/22 11:36:17;;;;;;;16.35;3.33;;;;;;;;;;5047044;28;20056;-55
2022/01/22 11:38:51;;;;;;;11.60;3.47;;;;;;;;;;5028812;28;20045;-57
2022/01/22 11:41:21;;;;;;;8.60;2.60;;;;;;;;;;5047304;28;20067;-58
2022/01/22 11:44:08;;;;;;;8.98;2.80;;;;;;;;;;5037652;28;20055;-58
2022/01/22 11:46:37;;;;;;;6.10;2.42;;;;;;;;;;5028391;28;20049;-56
2022/01/22 11:49:14;;;;;;;9.07;2.78;;;;;;;;;;5026869;28;20045;-56
2022/01/22 11:51:41;;;;;;;8.52;2.65;;;;;;;;;;5049894;28;20053;-59
2022/01/22 11:54:14;;;;;;;7.35;2.70;;;;;;;;;;5043160;28;20049;-57
2022/01/22 11:56:45;;;;;;;8.30;2.80;;;;;;;;;;5047800;28;20049;-60
2022/01/22 11:59:19;;;;;;;7.95;2.67;;;;;;;;;;5040811;28;20065;-55
2022/01/22 12:01:53;;;;;;;8.25;2.20;;;;;;;;;;5027826;28;20054;-56
2022/01/22 12:04:21;;;;;;;3.88;1.95;;;;;;;;;;5023052;28;20053;-58
2022/01/22 12:07:02;;;;;;;17.58;5.63;;;;;;;;;;5045248;28;20376;-59
2022/01/22 12:09:32;;;;;;;28.63;7.55;;;;;;;;;;5029167;28;20064;-57
2022/01/22 12:14:54;;;;;;;12.65;3.40;;;;;;;;;;5039514;28;20130;-56
2022/01/22 12:17:41;;;;;;;9.82;3.45;;;;;;;;;;5047236;28;20102;-58
2022/01/22 12:20:40;;;;;;;7.35;2.70;;;;;;;;;;5037196;28;20111;-57
2022/01/22 12:23:07;;;;;;;11.82;3.00;;;;;;;;;;5026736;28;20072;-51
2022/01/22 12:25:51;;;;;;;6.82;2.30;;;;;;;;;;5027265;28;20110;-54
2022/01/22 12:28:34;;;;;;;9.48;2.42;;;;;;;;;;5026507;28;20053;-51
2022/01/22 12:31:02;;;;;;;8.25;3.10;;;;;;;;;;5020335;28;20057;-54
2022/01/22 12:33:43;;;;;;;12.80;3.85;;;;;;;;;;5026194;28;20053;-57
2022/01/22 12:36:17;;;;;;;8.15;3.15;;;;;;;;;;5027723;28;20061;-56
2022/01/22 12:38:47;;;;;;;9.68;3.33;;;;;;;;;;5045578;28;20056;-55
2022/01/22 12:41:28;;;;;;;10.40;3.55;;;;;;;;;;5039938;28;20052;-53
2022/01/22 12:44:04;;;;;;;9.90;3.60;;;;;;;;;;5045978;28;20344;-54
2022/01/22 12:46:31;;;;;;;13.65;5.38;;;;;;;;;;5039711;28;20064;-55
2022/01/22 12:48:57;;;;;;;13.30;4.20;;;;;;;;;;5046781;28;20121;-55
2022/01/22 12:51:27;;;;;;;10.43;3.88;;;;;;;;;;5037482;28;20069;-57
2022/01/22 12:53:53;;;;;;;11.65;4.35;;;;;;;;;;5026195;28;20049;-53
2022/01/22 12:59:08;;;;;;;10.52;3.53;;;;;;;;;;5012566;28;20045;-53
2022/01/22 13:01:35;;;;;;;16.85;4.82;;;;;;;;;;5022707;28;20061;-54
2022/01/22 13:04:05;;;;;;;17.10;5.28;;;;;;;;;;5045758;28;20052;-53
2022/01/22 13:06:42;;;;;;;14.18;5.40;;;;;;;;;;5043753;28;20048;-52
2022/01/22 13:09:11;;;;;;;11.43;4.28;;;;;;;;;;5026184;28;20072;-56
2022/01/22 13:11:45;;;;;;;9.57;4.18;;;;;;;;;;5026487;28;20057;-56
2022/01/22 13:14:12;;;;;;;10.63;3.78;;;;;;;;;;5038642;28;20053;-53
2022/01/22 13:16:46;;;;;;;14.48;5.10;;;;;;;;;;5047013;28;20080;-57
2022/01/22 13:19:13;;;;;;;15.57;4.65;;;;;;;;;;5020272;28;20095;-56
2022/01/22 13:21:48;;;;;;;9.65;3.63;;;;;;;;;;5026901;28;20058;-55
2022/01/22 13:24:19;;;;;;;9.65;3.50;;;;;;;;;;5041600;28;20083;-56
2022/01/22 13:26:51;;;;;;;14.85;4.18;;;;;;;;;;5030216;28;20560;-59
2022/01/22 13:29:19;;;;;;;13.02;3.22;;;;;;;;;;5023332;28;20139;-57
2022/01/22 13:32:02;;;;;;;9.38;3.13;;;;;;;;;;5029277;28;20053;-58
2022/01/22 13:34:38;;;;;;;9.40;2.85;;;;;;;;;;5022323;28;20135;-55
2022/01/22 13:37:53;;;;;;;7.25;2.65;;;;;;;;;;5029302;28;20063;-57
2022/01/22 13:40:32;;;;;;;7.57;2.45;;;;;;;;;;5027431;28;20064;-59
2022/01/22 13:48:38;;;;;;;12.70;3.33;;;;;;;;;;5023961;28;20072;-56
2022/01/22 13:51:05;;;;;;;7.40;2.60;;;;;;;;;;5031214;28;20049;-56
2022/01/22 13:53:34;;;;;;;8.05;2.75;;;;;;;;;;5027735;28;20441;-59
2022/01/22 13:56:02;;;;;;;;;;;;;;;;;;5034580;28;20049;-54
2022/01/22 13:58:29;;;;;;;;;;;;;;;;;;5034551;28;20012;-54
2022/01/22 14:01:00;;;;;;;14.45;4.95;;;;;;;;;;5033146;28;19931;-55
2022/01/22 14:03:32;;;;;;;15.60;4.07;;;;;;;;;;5053254;28;20143;-54
2022/01/22 14:06:01;;;;;;;11.18;3.88;;;;;;;;;;5040760;28;20053;-56
2022/01/22 14:08:33;;;;;;;7.38;2.95;;;;;;;;;;5033576;28;20083;-56
2022/01/22 14:11:05;;;;;;;9.27;3.28;;;;;;;;;;5026677;28;20055;-55
2022/01/22 14:13:32;;;;;;;11.18;2.95;;;;;;;;;;5041025;28;20060;-57
2022/01/22 14:16:14;;;;;;;7.13;2.88;;;;;;;;;;5045800;28;20052;-57
2022/01/22 14:18:41;;;;;;;14.00;3.25;;;;;;;;;;5052443;28;20091;-57
2022/01/22 14:21:09;;;;;;;7.30;2.50;;;;;;;;;;5043823;28;20109;-55
2022/01/22 14:23:36;;;;;;;9.88;3.22;;;;;;;;;;5049358;28;20095;-57
2022/01/22 14:26:04;;;;;;;10.93;3.00;;;;;;;;;;5042327;28;20045;-58
2022/01/22 14:28:39;;;;;;;13.07;3.50;;;;;;;;;;5046573;28;20107;-54
2022/01/22 14:31:20;;;;;;;8.88;3.58;;;;;;;;;;5032425;28;20094;-57
2022/01/22 14:33:47;;;;;;;11.20;4.10;;;;;;;;;;5028832;28;20053;-54
2022/01/22 14:36:15;;;;;;;9.40;4.07;;;;;;;;;;5033509;28;20041;-54
2022/01/22 14:38:46;;;;;;;8.50;3.10;;;;;;;;;;5065312;28;20055;-55
2022/01/22 14:44:24;;;;;;;10.18;3.20;;;;;;;;;;5065676;28;20052;-57
2022/01/22 14:46:56;;;;;;;7.88;2.83;;;;;;;;;;5046095;28;20062;-56
2022/01/22 14:49:23;;;;;;;9.60;3.65;;;;;;;;;;5047843;28;20080;-56
2022/01/22 14:51:50;;;;;;;10.40;4.00;;;;;;;;;;5043611;28;20068;-59
2022/01/22 14:54:19;;;;;;;9.80;3.72;;;;;;;;;;5048392;28;20059;-53
2022/01/22 14:56:46;;;;;;;9.32;3.97;;;;;;;;;;5041991;28;20060;-56
2022/01/22 14:59:14;;;;;;;10.63;4.13;;;;;;;;;;5050816;28;20048;-56
2022/01/22 15:01:40;;;;;;;11.07;4.45;;;;;;;;;;5044832;28;20041;-56
2022/01/22 15:04:07;;;;;;;10.70;3.92;;;;;;;;;;5054561;28;20052;-59
2022/01/22 15:06:34;;;;;;;12.90;4.40;;;;;;;;;;5054401;28;20110;-58
2022/01/22 15:09:01;;;;;;;10.00;4.13;;;;;;;;;;5058196;28;20125;-57
2022/01/22 15:11:27;;;;;;;10.65;4.22;;;;;;;;;;5049098;28;20076;-59
2022/01/22 15:13:54;;;;;;;16.50;7.20;;;;;;;;;;5047364;28;20113;-57
2022/01/22 15:16:23;;;;;;;16.92;6.47;;;;;;;;;;5058897;28;20061;-58
2022/01/22 15:19:00;;;;;;;16.35;6.28;;;;;;;;;;5040391;28;20049;-56
2022/01/22 15:21:27;;;;;;;11.23;4.63;;;;;;;;;;5049452;28;20056;-56
2022/01/22 15:23:54;;;;;;;12.10;4.75;;;;;;;;;;5054196;28;20056;-56
2022/01/22 15:26:20;;;;;;;13.25;4.25;;;;;;;;;;5048482;28;20099;-57
2022/01/22 15:28:47;;;;;;;12.15;4.43;;;;;;;;;;5040508;28;20064;-54
2022/01/22 15:31:30;;;;;;;9.95;4.18;;;;;;;;;;5030993;28;20064;-55
2022/01/22 15:34:14;;;;;;;12.95;4.22;;;;;;;;;;5023082;28;20049;-56
2022/01/22 15:36:43;;;;;;;14.82;4.82;;;;;;;;;;5029671;28;20067;-56
2022/01/22 15:39:10;;;;;;;12.43;4.25;;;;;;;;;;5021550;28;20045;-59
2022/01/22 15:41:38;;;;;;;15.02;4.38;;;;;;;;;;5022187;28;20053;-58
2022/01/22 15:44:08;;;;;;;9.85;3.72;;;;;;;;;;5027329;28;20049;-55
2022/01/22 15:46:37;;;;;;;12.88;4.70;;;;;;;;;;5031444;28;20125;-51
2022/01/22 15:49:05;;;;;;;12.38;4.60;;;;;;;;;;5029895;28;20045;-58
2022/01/22 15:51:32;;;;;;;11.50;5.35;;;;;;;;;;5028994;28;20054;-56
2022/01/22 15:53:59;;;;;;;13.65;6.25;;;;;;;;;;5019932;28;20073;-56
2022/01/22 15:56:25;;;;;;;17.52;6.85;;;;;;;;;;5027301;28;20037;-58
2022/01/22 15:58:52;;;;;;;15.38;5.80;;;;;;;;;;5016968;28;20042;-57
2022/01/22 16:01:18;;;;;;;18.40;5.40;;;;;;;;;;5008892;28;20060;-57
2022/01/22 16:03:47;;;;;;;13.93;5.47;;;;;;;;;;5002538;28;20053;-56
2022/01/22 16:06:19;;;;;;;;;;;;;;;;;;5010122;28;20057;-58
2022/01/22 16:08:48;;;;;;;14.20;5.28;;;;;;;;;;5003525;28;19979;-54
2022/01/22 16:11:15;;;;;;;11.07;4.93;;;;;;;;;;5008303;28;20057;-60